sensor_id;sensor_type;location;lat;lon;timestamp;P1;durP1;ratioP1;P2;durP2;ratioP2
16312;SDS011;8265;52.622;13.296;2023-08-06T00:02:58;3.60;;;2.80;;
16312;SDS011;8265;52.622;13.296;2023-08-06T00:08:19;3.00;;;2.70;;
16312;SDS011;8265;52.622;13.296;2023-08-06T00:13:40;2.00;;;1.90;;
16312;SDS011;8265;52.622;13.296;2023-08-06T00:19:01;4.40;;;3.10;;
16312;SDS011;8265;52.622;13.296;2023-08-06T00:24:22;3.40;;;2.30;;
16312;SDS011;8265;52.622;13.296;2023-08-06T00:29:43;3.60;;;3.30;;
16312;SDS011;8265;52.622;13.296;2023-08-06T00:35:04;4.40;;;3.80;;
16312;SDS011;8265;52.622;13.296;2023-08-06T00:40:25;3.40;;;3.10;;
16312;SDS011;8265;52.622;13.296;2023-08-06T00:45:46;4.90;;;3.00;;
16312;SDS011;8265;52.622;13.296;2023-08-06T00:51:07;3.20;;;2.90;;
16312;SDS011;8265;52.622;13.296;2023-08-06T00:56:28;4.40;;;3.50;;
16312;SDS011;8265;52.622;13.296;2023-08-06T01:01:49;4.50;;;3.50;;
16312;SDS011;8265;52.622;13.296;2023-08-06T01:07:21;4.40;;;3.10;;
16312;SDS011;8265;52.622;13.296;2023-08-06T01:17:52;4.00;;;3.60;;
16312;SDS011;8265;52.622;13.296;2023-08-06T01:23:13;16.30;;;4.60;;
16312;SDS011;8265;52.622;13.296;2023-08-06T01:33:55;6.80;;;4.80;;
16312;SDS011;8265;52.622;13.296;2023-08-06T01:39:16;4.50;;;3.10;;
16312;SDS011;8265;52.622;13.296;2023-08-06T01:44:37;5.10;;;4.60;;
16312;SDS011;8265;52.622;13.296;2023-08-06T01:49:58;4.30;;;3.80;;
16312;SDS011;8265;52.622;13.296;2023-08-06T01:55:19;4.20;;;3.80;;
16312;SDS011;8265;52.622;13.296;2023-08-06T02:00:40;9.60;;;5.60;;
16312;SDS011;8265;52.622;13.296;2023-08-06T02:06:01;5.70;;;5.10;;
16312;SDS011;8265;52.622;13.296;2023-08-06T02:11:22;7.10;;;5.70;;
16312;SDS011;8265;52.622;13.296;2023-08-06T02:16:43;3.60;;;2.80;;
16312;SDS011;8265;52.622;13.296;2023-08-06T02:22:04;6.60;;;4.30;;
16312;SDS011;8265;52.622;13.296;2023-08-06T02:27:25;8.30;;;4.80;;
16312;SDS011;8265;52.622;13.296;2023-08-06T02:32:46;5.50;;;4.00;;
16312;SDS011;8265;52.622;13.296;2023-08-06T02:38:07;8.50;;;5.80;;
16312;SDS011;8265;52.622;13.296;2023-08-06T02:43:28;5.50;;;3.10;;
16312;SDS011;8265;52.622;13.296;2023-08-06T02:48:49;5.10;;;3.60;;
16312;SDS011;8265;52.622;13.296;2023-08-06T02:54:10;3.80;;;3.50;;
16312;SDS011;8265;52.622;13.296;2023-08-06T02:59:31;4.90;;;4.40;;
16312;SDS011;8265;52.622;13.296;2023-08-06T03:04:52;4.20;;;3.30;;
16312;SDS011;8265;52.622;13.296;2023-08-06T03:10:13;5.40;;;4.30;;
16312;SDS011;8265;52.622;13.296;2023-08-06T03:15:34;4.80;;;4.30;;
16312;SDS011;8265;52.622;13.296;2023-08-06T03:20:55;6.20;;;4.50;;
16312;SDS011;8265;52.622;13.296;2023-08-06T03:26:16;11.80;;;5.30;;
16312;SDS011;8265;52.622;13.296;2023-08-06T03:31:37;4.20;;;3.50;;
16312;SDS011;8265;52.622;13.296;2023-08-06T03:36:58;5.40;;;4.60;;
16312;SDS011;8265;52.622;13.296;2023-08-06T03:42:19;6.20;;;5.30;;
16312;SDS011;8265;52.622;13.296;2023-08-06T03:47:40;5.20;;;4.70;;
16312;SDS011;8265;52.622;13.296;2023-08-06T03:53:01;5.10;;;4.70;;
16312;SDS011;8265;52.622;13.296;2023-08-06T03:58:22;5.40;;;3.80;;
16312;SDS011;8265;52.622;13.296;2023-08-06T04:03:43;5.00;;;3.90;;
16312;SDS011;8265;52.622;13.296;2023-08-06T04:09:04;4.20;;;3.80;;
16312;SDS011;8265;52.622;13.296;2023-08-06T04:14:26;4.90;;;4.40;;
16312;SDS011;8265;52.622;13.296;2023-08-06T04:19:49;5.40;;;4.60;;
16312;SDS011;8265;52.622;13.296;2023-08-06T04:25:07;5.50;;;3.90;;
16312;SDS011;8265;52.622;13.296;2023-08-06T04:30:28;6.20;;;5.60;;
16312;SDS011;8265;52.622;13.296;2023-08-06T04:35:53;6.80;;;6.10;;
16312;SDS011;8265;52.622;13.296;2023-08-06T04:41:09;7.00;;;5.90;;
16312;SDS011;8265;52.622;13.296;2023-08-06T04:46:30;8.60;;;5.70;;
16312;SDS011;8265;52.622;13.296;2023-08-06T04:51:51;6.00;;;4.20;;
16312;SDS011;8265;52.622;13.296;2023-08-06T04:57:12;5.40;;;4.90;;
16312;SDS011;8265;52.622;13.296;2023-08-06T05:02:33;11.40;;;6.90;;
16312;SDS011;8265;52.622;13.296;2023-08-06T05:07:55;9.50;;;5.50;;
16312;SDS011;8265;52.622;13.296;2023-08-06T05:13:15;6.60;;;5.90;;
16312;SDS011;8265;52.622;13.296;2023-08-06T05:18:36;7.40;;;6.70;;
16312;SDS011;8265;52.622;13.296;2023-08-06T05:23:57;5.70;;;4.50;;
16312;SDS011;8265;52.622;13.296;2023-08-06T05:29:18;6.40;;;5.00;;
16312;SDS011;8265;52.622;13.296;2023-08-06T05:34:39;7.60;;;5.50;;
16312;SDS011;8265;52.622;13.296;2023-08-06T05:40:00;6.80;;;5.30;;
16312;SDS011;8265;52.622;13.296;2023-08-06T05:45:21;13.80;;;6.10;;
16312;SDS011;8265;52.622;13.296;2023-08-06T05:50:42;5.00;;;4.50;;
16312;SDS011;8265;52.622;13.296;2023-08-06T05:56:03;5.80;;;4.20;;
16312;SDS011;8265;52.622;13.296;2023-08-06T06:01:24;5.90;;;4.30;;
16312;SDS011;8265;52.622;13.296;2023-08-06T06:06:45;5.20;;;4.70;;
16312;SDS011;8265;52.622;13.296;2023-08-06T06:12:06;10.00;;;5.60;;
16312;SDS011;8265;52.622;13.296;2023-08-06T06:17:28;6.70;;;5.80;;
16312;SDS011;8265;52.622;13.296;2023-08-06T06:22:48;7.90;;;5.20;;
16312;SDS011;8265;52.622;13.296;2023-08-06T06:28:09;6.80;;;5.40;;
16312;SDS011;8265;52.622;13.296;2023-08-06T06:33:30;6.70;;;4.80;;
16312;SDS011;8265;52.622;13.296;2023-08-06T06:38:51;5.90;;;4.40;;
16312;SDS011;8265;52.622;13.296;2023-08-06T06:44:13;10.10;;;3.70;;
16312;SDS011;8265;52.622;13.296;2023-08-06T06:49:33;4.20;;;3.80;;
16312;SDS011;8265;52.622;13.296;2023-08-06T06:54:54;5.30;;;4.40;;
16312;SDS011;8265;52.622;13.296;2023-08-06T07:00:15;4.80;;;3.60;;
16312;SDS011;8265;52.622;13.296;2023-08-06T07:05:36;5.10;;;4.40;;
16312;SDS011;8265;52.622;13.296;2023-08-06T07:11:04;4.10;;;3.70;;
16312;SDS011;8265;52.622;13.296;2023-08-06T07:16:18;4.20;;;3.80;;
16312;SDS011;8265;52.622;13.296;2023-08-06T07:21:39;5.90;;;3.70;;
16312;SDS011;8265;52.622;13.296;2023-08-06T07:27:00;5.10;;;4.50;;
16312;SDS011;8265;52.622;13.296;2023-08-06T07:32:21;4.10;;;3.50;;
16312;SDS011;8265;52.622;13.296;2023-08-06T07:37:42;8.10;;;5.00;;
16312;SDS011;8265;52.622;13.296;2023-08-06T07:43:03;4.80;;;4.40;;
16312;SDS011;8265;52.622;13.296;2023-08-06T07:48:24;4.60;;;4.00;;
16312;SDS011;8265;52.622;13.296;2023-08-06T07:53:45;13.30;;;4.00;;
16312;SDS011;8265;52.622;13.296;2023-08-06T07:59:06;6.90;;;4.60;;
16312;SDS011;8265;52.622;13.296;2023-08-06T08:04:27;3.60;;;3.00;;
16312;SDS011;8265;52.622;13.296;2023-08-06T08:09:48;5.30;;;4.80;;
16312;SDS011;8265;52.622;13.296;2023-08-06T08:15:09;6.00;;;4.90;;
16312;SDS011;8265;52.622;13.296;2023-08-06T08:20:30;9.60;;;4.90;;
16312;SDS011;8265;52.622;13.296;2023-08-06T08:25:51;5.70;;;4.20;;
16312;SDS011;8265;52.622;13.296;2023-08-06T08:31:12;6.00;;;5.40;;
16312;SDS011;8265;52.622;13.296;2023-08-06T08:36:33;4.00;;;3.60;;
16312;SDS011;8265;52.622;13.296;2023-08-06T08:41:54;4.00;;;3.60;;
16312;SDS011;8265;52.622;13.296;2023-08-06T08:47:15;7.50;;;6.20;;
16312;SDS011;8265;52.622;13.296;2023-08-06T08:52:37;5.00;;;4.40;;
16312;SDS011;8265;52.622;13.296;2023-08-06T08:57:57;8.50;;;4.50;;
16312;SDS011;8265;52.622;13.296;2023-08-06T09:03:18;7.50;;;4.70;;
16312;SDS011;8265;52.622;13.296;2023-08-06T09:08:41;7.40;;;4.70;;
16312;SDS011;8265;52.622;13.296;2023-08-06T09:14:00;5.50;;;4.30;;
16312;SDS011;8265;52.622;13.296;2023-08-06T09:19:21;7.10;;;5.50;;
16312;SDS011;8265;52.622;13.296;2023-08-06T09:24:42;7.10;;;5.50;;
16312;SDS011;8265;52.622;13.296;2023-08-06T09:30:04;5.80;;;4.30;;
16312;SDS011;8265;52.622;13.296;2023-08-06T09:35:24;8.60;;;5.00;;
16312;SDS011;8265;52.622;13.296;2023-08-06T09:40:45;8.60;;;5.00;;
16312;SDS011;8265;52.622;13.296;2023-08-06T09:46:13;6.80;;;5.60;;
16312;SDS011;8265;52.622;13.296;2023-08-06T09:51:27;6.80;;;5.60;;
16312;SDS011;8265;52.622;13.296;2023-08-06T09:56:48;5.40;;;4.80;;
16312;SDS011;8265;52.622;13.296;2023-08-06T10:02:11;6.30;;;4.90;;
16312;SDS011;8265;52.622;13.296;2023-08-06T10:07:30;8.50;;;5.80;;
16312;SDS011;8265;52.622;13.296;2023-08-06T10:12:52;6.50;;;4.20;;
16312;SDS011;8265;52.622;13.296;2023-08-06T10:18:12;3.50;;;3.20;;
16312;SDS011;8265;52.622;13.296;2023-08-06T10:23:33;3.40;;;2.20;;
16312;SDS011;8265;52.622;13.296;2023-08-06T10:28:54;4.60;;;3.00;;
16312;SDS011;8265;52.622;13.296;2023-08-06T10:34:16;3.30;;;2.80;;
16312;SDS011;8265;52.622;13.296;2023-08-06T10:39:36;4.20;;;3.80;;
16312;SDS011;8265;52.622;13.296;2023-08-06T10:45:13;4.20;;;3.80;;
16312;SDS011;8265;52.622;13.296;2023-08-06T10:50:18;3.80;;;3.50;;
16312;SDS011;8265;52.622;13.296;2023-08-06T10:55:39;4.90;;;4.20;;
16312;SDS011;8265;52.622;13.296;2023-08-06T11:01:00;4.90;;;4.20;;
16312;SDS011;8265;52.622;13.296;2023-08-06T11:06:21;8.00;;;4.50;;
16312;SDS011;8265;52.622;13.296;2023-08-06T11:11:42;4.50;;;3.70;;
16312;SDS011;8265;52.622;13.296;2023-08-06T11:17:03;4.20;;;3.10;;
16312;SDS011;8265;52.622;13.296;2023-08-06T11:22:24;4.30;;;3.90;;
16312;SDS011;8265;52.622;13.296;2023-08-06T11:27:45;5.10;;;3.50;;
16312;SDS011;8265;52.622;13.296;2023-08-06T11:33:06;5.20;;;4.50;;
16312;SDS011;8265;52.622;13.296;2023-08-06T11:38:28;6.50;;;4.60;;
16312;SDS011;8265;52.622;13.296;2023-08-06T11:43:48;7.60;;;5.60;;
16312;SDS011;8265;52.622;13.296;2023-08-06T11:49:09;4.20;;;3.40;;
16312;SDS011;8265;52.622;13.296;2023-08-06T11:54:31;4.20;;;3.40;;
16312;SDS011;8265;52.622;13.296;2023-08-06T11:59:51;5.10;;;4.20;;
16312;SDS011;8265;52.622;13.296;2023-08-06T12:05:13;7.70;;;4.90;;
16312;SDS011;8265;52.622;13.296;2023-08-06T12:10:33;7.70;;;4.90;;
16312;SDS011;8265;52.622;13.296;2023-08-06T12:15:54;6.90;;;5.00;;
16312;SDS011;8265;52.622;13.296;2023-08-06T12:21:15;6.40;;;3.90;;
16312;SDS011;8265;52.622;13.296;2023-08-06T12:26:36;5.50;;;4.90;;
16312;SDS011;8265;52.622;13.296;2023-08-06T12:31:57;5.00;;;4.00;;
16312;SDS011;8265;52.622;13.296;2023-08-06T12:37:18;6.70;;;5.00;;
16312;SDS011;8265;52.622;13.296;2023-08-06T12:42:39;7.40;;;5.00;;
16312;SDS011;8265;52.622;13.296;2023-08-06T12:48:00;12.30;;;4.50;;
16312;SDS011;8265;52.622;13.296;2023-08-06T12:53:21;8.80;;;4.60;;
16312;SDS011;8265;52.622;13.296;2023-08-06T12:58:42;8.80;;;4.60;;
16312;SDS011;8265;52.622;13.296;2023-08-06T13:04:03;4.60;;;4.20;;
16312;SDS011;8265;52.622;13.296;2023-08-06T13:09:24;11.30;;;5.20;;
16312;SDS011;8265;52.622;13.296;2023-08-06T13:14:45;5.80;;;4.20;;
16312;SDS011;8265;52.622;13.296;2023-08-06T13:20:06;5.40;;;3.90;;
16312;SDS011;8265;52.622;13.296;2023-08-06T13:25:27;10.50;;;4.60;;
16312;SDS011;8265;52.622;13.296;2023-08-06T13:30:48;4.10;;;3.20;;
16312;SDS011;8265;52.622;13.296;2023-08-06T13:36:08;4.60;;;3.40;;
16312;SDS011;8265;52.622;13.296;2023-08-06T13:41:30;2.80;;;2.30;;
16312;SDS011;8265;52.622;13.296;2023-08-06T13:46:51;2.80;;;2.30;;
16312;SDS011;8265;52.622;13.296;2023-08-06T13:52:12;3.80;;;2.50;;
16312;SDS011;8265;52.622;13.296;2023-08-06T13:57:33;2.70;;;2.50;;
16312;SDS011;8265;52.622;13.296;2023-08-06T14:02:54;1.80;;;1.60;;
16312;SDS011;8265;52.622;13.296;2023-08-06T14:08:15;3.30;;;1.90;;
16312;SDS011;8265;52.622;13.296;2023-08-06T14:13:36;2.70;;;2.50;;
16312;SDS011;8265;52.622;13.296;2023-08-06T14:18:57;2.70;;;2.50;;
16312;SDS011;8265;52.622;13.296;2023-08-06T14:24:18;1.90;;;1.70;;
16312;SDS011;8265;52.622;13.296;2023-08-06T14:29:39;1.90;;;1.70;;
16312;SDS011;8265;52.622;13.296;2023-08-06T14:35:00;2.50;;;2.00;;
16312;SDS011;8265;52.622;13.296;2023-08-06T14:40:21;2.60;;;1.70;;
16312;SDS011;8265;52.622;13.296;2023-08-06T14:45:42;0.80;;;0.80;;
16312;SDS011;8265;52.622;13.296;2023-08-06T14:51:03;0.80;;;0.80;;
16312;SDS011;8265;52.622;13.296;2023-08-06T14:56:24;1.40;;;1.30;;
16312;SDS011;8265;52.622;13.296;2023-08-06T15:01:45;1.60;;;1.40;;
16312;SDS011;8265;52.622;13.296;2023-08-06T15:07:06;8.50;;;2.30;;
16312;SDS011;8265;52.622;13.296;2023-08-06T15:12:27;1.40;;;1.30;;
16312;SDS011;8265;52.622;13.296;2023-08-06T15:17:47;4.90;;;1.90;;
16312;SDS011;8265;52.622;13.296;2023-08-06T15:23:08;1.80;;;1.60;;
16312;SDS011;8265;52.622;13.296;2023-08-06T15:28:29;1.80;;;1.60;;
16312;SDS011;8265;52.622;13.296;2023-08-06T15:33:50;2.70;;;2.50;;
16312;SDS011;8265;52.622;13.296;2023-08-06T15:39:11;2.70;;;2.50;;
16312;SDS011;8265;52.622;13.296;2023-08-06T15:44:32;2.70;;;1.90;;
16312;SDS011;8265;52.622;13.296;2023-08-06T15:49:53;2.70;;;1.90;;
16312;SDS011;8265;52.622;13.296;2023-08-06T15:55:15;2.10;;;1.30;;
16312;SDS011;8265;52.622;13.296;2023-08-06T16:00:35;2.20;;;1.60;;
16312;SDS011;8265;52.622;13.296;2023-08-06T16:05:56;1.60;;;0.90;;
16312;SDS011;8265;52.622;13.296;2023-08-06T16:11:17;2.90;;;1.80;;
16312;SDS011;8265;52.622;13.296;2023-08-06T16:16:38;2.50;;;1.50;;
16312;SDS011;8265;52.622;13.296;2023-08-06T16:21:59;2.80;;;1.90;;
16312;SDS011;8265;52.622;13.296;2023-08-06T16:27:20;1.30;;;1.20;;
16312;SDS011;8265;52.622;13.296;2023-08-06T16:32:42;3.80;;;2.30;;
16312;SDS011;8265;52.622;13.296;2023-08-06T16:38:02;0.90;;;0.90;;
16312;SDS011;8265;52.622;13.296;2023-08-06T16:43:23;2.80;;;2.10;;
16312;SDS011;8265;52.622;13.296;2023-08-06T16:48:45;1.00;;;0.90;;
16312;SDS011;8265;52.622;13.296;2023-08-06T16:54:05;1.50;;;1.30;;
16312;SDS011;8265;52.622;13.296;2023-08-06T16:59:27;1.90;;;1.40;;
16312;SDS011;8265;52.622;13.296;2023-08-06T17:04:47;1.30;;;1.30;;
16312;SDS011;8265;52.622;13.296;2023-08-06T17:10:09;1.90;;;1.10;;
16312;SDS011;8265;52.622;13.296;2023-08-06T17:15:30;0.70;;;0.70;;
16312;SDS011;8265;52.622;13.296;2023-08-06T17:20:50;1.30;;;1.20;;
16312;SDS011;8265;52.622;13.296;2023-08-06T17:26:11;1.40;;;1.30;;
16312;SDS011;8265;52.622;13.296;2023-08-06T17:31:32;2.20;;;2.00;;
16312;SDS011;8265;52.622;13.296;2023-08-06T17:36:53;2.20;;;1.70;;
16312;SDS011;8265;52.622;13.296;2023-08-06T17:42:14;2.60;;;1.40;;
16312;SDS011;8265;52.622;13.296;2023-08-06T17:47:35;1.60;;;1.30;;
16312;SDS011;8265;52.622;13.296;2023-08-06T17:52:56;1.80;;;1.70;;
16312;SDS011;8265;52.622;13.296;2023-08-06T17:58:17;1.30;;;1.20;;
16312;SDS011;8265;52.622;13.296;2023-08-06T18:03:38;1.00;;;1.00;;
16312;SDS011;8265;52.622;13.296;2023-08-06T18:08:59;2.60;;;1.30;;
16312;SDS011;8265;52.622;13.296;2023-08-06T18:14:20;3.50;;;1.20;;
16312;SDS011;8265;52.622;13.296;2023-08-06T18:19:41;1.80;;;1.60;;
16312;SDS011;8265;52.622;13.296;2023-08-06T18:25:02;0.80;;;0.80;;
16312;SDS011;8265;52.622;13.296;2023-08-06T18:30:23;0.80;;;0.80;;
16312;SDS011;8265;52.622;13.296;2023-08-06T18:35:44;1.60;;;1.10;;
16312;SDS011;8265;52.622;13.296;2023-08-06T18:41:05;1.10;;;1.10;;
16312;SDS011;8265;52.622;13.296;2023-08-06T18:46:26;0.90;;;0.90;;
16312;SDS011;8265;52.622;13.296;2023-08-06T18:51:47;1.10;;;1.10;;
16312;SDS011;8265;52.622;13.296;2023-08-06T18:57:08;1.80;;;1.60;;
16312;SDS011;8265;52.622;13.296;2023-08-06T19:02:29;2.50;;;1.00;;
16312;SDS011;8265;52.622;13.296;2023-08-06T19:07:50;6.40;;;2.50;;
16312;SDS011;8265;52.622;13.296;2023-08-06T19:13:11;4.40;;;3.00;;
16312;SDS011;8265;52.622;13.296;2023-08-06T19:18:32;1.90;;;1.60;;
16312;SDS011;8265;52.622;13.296;2023-08-06T19:23:53;2.60;;;1.70;;
16312;SDS011;8265;52.622;13.296;2023-08-06T19:29:14;1.00;;;0.90;;
16312;SDS011;8265;52.622;13.296;2023-08-06T19:34:35;1.50;;;1.20;;
16312;SDS011;8265;52.622;13.296;2023-08-06T19:39:57;3.70;;;1.80;;
16312;SDS011;8265;52.622;13.296;2023-08-06T19:45:17;2.60;;;1.40;;
16312;SDS011;8265;52.622;13.296;2023-08-06T19:50:38;3.20;;;2.50;;
16312;SDS011;8265;52.622;13.296;2023-08-06T19:56:00;1.40;;;1.30;;
16312;SDS011;8265;52.622;13.296;2023-08-06T20:01:20;2.00;;;1.80;;
16312;SDS011;8265;52.622;13.296;2023-08-06T20:06:41;2.70;;;1.90;;
16312;SDS011;8265;52.622;13.296;2023-08-06T20:12:02;1.70;;;1.40;;
16312;SDS011;8265;52.622;13.296;2023-08-06T20:17:23;6.00;;;1.70;;
16312;SDS011;8265;52.622;13.296;2023-08-06T20:22:44;1.20;;;0.90;;
16312;SDS011;8265;52.622;13.296;2023-08-06T20:28:05;1.70;;;1.20;;
16312;SDS011;8265;52.622;13.296;2023-08-06T20:33:26;2.20;;;1.70;;
16312;SDS011;8265;52.622;13.296;2023-08-06T20:38:47;1.20;;;1.10;;
16312;SDS011;8265;52.622;13.296;2023-08-06T20:44:08;1.80;;;1.70;;
16312;SDS011;8265;52.622;13.296;2023-08-06T20:49:29;2.70;;;1.80;;
16312;SDS011;8265;52.622;13.296;2023-08-06T20:54:50;1.60;;;0.90;;
16312;SDS011;8265;52.622;13.296;2023-08-06T21:00:12;0.90;;;0.90;;
16312;SDS011;8265;52.622;13.296;2023-08-06T21:05:32;0.90;;;0.90;;
16312;SDS011;8265;52.622;13.296;2023-08-06T21:10:53;0.20;;;0.20;;
16312;SDS011;8265;52.622;13.296;2023-08-06T21:16:14;0.60;;;0.50;;
16312;SDS011;8265;52.622;13.296;2023-08-06T21:21:35;2.10;;;1.50;;
16312;SDS011;8265;52.622;13.296;2023-08-06T21:26:56;0.80;;;0.80;;
16312;SDS011;8265;52.622;13.296;2023-08-06T21:32:17;0.60;;;0.60;;
16312;SDS011;8265;52.622;13.296;2023-08-06T21:37:38;2.70;;;1.60;;
16312;SDS011;8265;52.622;13.296;2023-08-06T21:42:59;4.90;;;2.00;;
16312;SDS011;8265;52.622;13.296;2023-08-06T21:48:20;0.80;;;0.80;;
16312;SDS011;8265;52.622;13.296;2023-08-06T21:53:41;4.30;;;2.00;;
16312;SDS011;8265;52.622;13.296;2023-08-06T21:59:02;2.50;;;2.30;;
16312;SDS011;8265;52.622;13.296;2023-08-06T22:04:23;1.20;;;1.10;;
16312;SDS011;8265;52.622;13.296;2023-08-06T22:09:44;1.60;;;1.50;;
16312;SDS011;8265;52.622;13.296;2023-08-06T22:15:05;1.10;;;0.80;;
16312;SDS011;8265;52.622;13.296;2023-08-06T22:20:26;0.50;;;0.40;;
16312;SDS011;8265;52.622;13.296;2023-08-06T22:25:47;1.60;;;1.40;;
16312;SDS011;8265;52.622;13.296;2023-08-06T22:31:08;1.20;;;1.20;;
16312;SDS011;8265;52.622;13.296;2023-08-06T22:36:29;1.00;;;1.00;;
16312;SDS011;8265;52.622;13.296;2023-08-06T22:41:50;1.60;;;1.50;;
16312;SDS011;8265;52.622;13.296;2023-08-06T22:47:11;1.40;;;1.30;;
16312;SDS011;8265;52.622;13.296;2023-08-06T22:52:32;0.80;;;0.80;;
16312;SDS011;8265;52.622;13.296;2023-08-06T22:57:53;1.20;;;1.10;;
16312;SDS011;8265;52.622;13.296;2023-08-06T23:03:14;2.00;;;0.90;;
16312;SDS011;8265;52.622;13.296;2023-08-06T23:08:35;1.90;;;1.40;;
16312;SDS011;8265;52.622;13.296;2023-08-06T23:13:56;2.00;;;1.90;;
16312;SDS011;8265;52.622;13.296;2023-08-06T23:19:17;1.80;;;1.70;;
16312;SDS011;8265;52.622;13.296;2023-08-06T23:24:38;1.90;;;1.70;;
16312;SDS011;8265;52.622;13.296;2023-08-06T23:29:59;1.70;;;1.10;;
16312;SDS011;8265;52.622;13.296;2023-08-06T23:35:20;1.10;;;1.00;;
16312;SDS011;8265;52.622;13.296;2023-08-06T23:40:41;1.50;;;1.40;;
16312;SDS011;8265;52.622;13.296;2023-08-06T23:46:02;1.40;;;0.90;;
16312;SDS011;8265;52.622;13.296;2023-08-06T23:51:23;1.70;;;1.30;;
16312;SDS011;8265;52.622;13.296;2023-08-06T23:56:44;0.70;;;0.20;;
